sensor_id;sensor_type;location;lat;lon;timestamp;temperature;humidity
46438;DHT22;32137;48.728;9.142;2023-03-13T00:00:13;8.20;99.90
46438;DHT22;32137;48.728;9.142;2023-03-13T00:02:40;8.20;99.90
46438;DHT22;32137;48.728;9.142;2023-03-13T00:05:05;8.10;99.90
46438;DHT22;32137;48.728;9.142;2023-03-13T00:07:31;8.20;99.90
46438;DHT22;32137;48.728;9.142;2023-03-13T00:09:56;8.10;99.90
46438;DHT22;32137;48.728;9.142;2023-03-13T00:12:22;8.10;99.90
46438;DHT22;32137;48.728;9.142;2023-03-13T00:14:47;8.10;99.90
46438;DHT22;32137;48.728;9.142;2023-03-13T00:17:13;8.10;99.90
46438;DHT22;32137;48.728;9.142;2023-03-13T00:19:39;8.10;99.90
46438;DHT22;32137;48.728;9.142;2023-03-13T00:22:04;8.10;99.90
46438;DHT22;32137;48.728;9.142;2023-03-13T00:24:30;8.10;99.90
46438;DHT22;32137;48.728;9.142;2023-03-13T00:26:55;8.10;99.90
46438;DHT22;32137;48.728;9.142;2023-03-13T00:29:21;8.20;99.90
46438;DHT22;32137;48.728;9.142;2023-03-13T00:31:46;8.10;99.90
46438;DHT22;32137;48.728;9.142;2023-03-13T00:34:12;8.10;99.90
46438;DHT22;32137;48.728;9.142;2023-03-13T00:36:37;8.10;99.90
46438;DHT22;32137;48.728;9.142;2023-03-13T00:39:04;8.20;99.90
46438;DHT22;32137;48.728;9.142;2023-03-13T00:41:31;8.20;99.90
46438;DHT22;32137;48.728;9.142;2023-03-13T00:43:57;8.20;99.90
46438;DHT22;32137;48.728;9.142;2023-03-13T00:46:25;8.20;99.90
46438;DHT22;32137;48.728;9.142;2023-03-13T00:48:51;8.20;99.90
46438;DHT22;32137;48.728;9.142;2023-03-13T00:51:18;8.30;99.90
46438;DHT22;32137;48.728;9.142;2023-03-13T00:53:45;8.20;99.90
46438;DHT22;32137;48.728;9.142;2023-03-13T00:56:13;8.20;99.90
46438;DHT22;32137;48.728;9.142;2023-03-13T00:58:40;8.20;99.90
46438;DHT22;32137;48.728;9.142;2023-03-13T01:01:08;8.20;99.90
46438;DHT22;32137;48.728;9.142;2023-03-13T01:03:34;8.10;99.90
46438;DHT22;32137;48.728;9.142;2023-03-13T01:06:02;8.20;99.90
46438;DHT22;32137;48.728;9.142;2023-03-13T01:08:29;8.20;99.90
46438;DHT22;32137;48.728;9.142;2023-03-13T01:11:03;8.10;99.90
46438;DHT22;32137;48.728;9.142;2023-03-13T01:13:30;8.10;99.90
46438;DHT22;32137;48.728;9.142;2023-03-13T01:16:00;8.20;99.90
46438;DHT22;32137;48.728;9.142;2023-03-13T01:18:26;8.10;99.90
46438;DHT22;32137;48.728;9.142;2023-03-13T01:20:52;8.10;99.90
46438;DHT22;32137;48.728;9.142;2023-03-13T01:23:17;8.20;99.90
46438;DHT22;32137;48.728;9.142;2023-03-13T01:25:43;8.10;99.90
46438;DHT22;32137;48.728;9.142;2023-03-13T01:28:08;8.20;99.90
46438;DHT22;32137;48.728;9.142;2023-03-13T01:30:34;8.20;99.90
46438;DHT22;32137;48.728;9.142;2023-03-13T01:32:59;8.10;99.90
46438;DHT22;32137;48.728;9.142;2023-03-13T01:35:26;8.20;99.90
46438;DHT22;32137;48.728;9.142;2023-03-13T01:37:52;8.10;99.90
46438;DHT22;32137;48.728;9.142;2023-03-13T01:40:18;8.10;99.90
46438;DHT22;32137;48.728;9.142;2023-03-13T01:43:03;8.10;99.90
46438;DHT22;32137;48.728;9.142;2023-03-13T01:48:27;8.20;99.90
46438;DHT22;32137;48.728;9.142;2023-03-13T01:50:56;8.20;99.90
46438;DHT22;32137;48.728;9.142;2023-03-13T01:53:24;8.20;99.90
46438;DHT22;32137;48.728;9.142;2023-03-13T01:55:51;8.20;99.90
46438;DHT22;32137;48.728;9.142;2023-03-13T01:58:17;8.20;99.90
46438;DHT22;32137;48.728;9.142;2023-03-13T02:00:44;8.20;99.90
46438;DHT22;32137;48.728;9.142;2023-03-13T02:03:14;8.20;99.90
46438;DHT22;32137;48.728;9.142;2023-03-13T02:05:41;8.20;99.90
46438;DHT22;32137;48.728;9.142;2023-03-13T02:08:18;8.20;99.90
46438;DHT22;32137;48.728;9.142;2023-03-13T02:10:52;8.20;99.90
46438;DHT22;32137;48.728;9.142;2023-03-13T02:13:19;8.20;99.90
46438;DHT22;32137;48.728;9.142;2023-03-13T02:15:45;8.10;99.90
46438;DHT22;32137;48.728;9.142;2023-03-13T02:18:11;8.20;99.90
46438;DHT22;32137;48.728;9.142;2023-03-13T02:20:38;8.20;99.90
46438;DHT22;32137;48.728;9.142;2023-03-13T02:25:55;8.30;99.90
46438;DHT22;32137;48.728;9.142;2023-03-13T02:28:27;8.30;99.90
46438;DHT22;32137;48.728;9.142;2023-03-13T02:30:57;8.30;99.90
46438;DHT22;32137;48.728;9.142;2023-03-13T02:33:28;8.30;99.90
46438;DHT22;32137;48.728;9.142;2023-03-13T02:35:54;8.40;99.90
46438;DHT22;32137;48.728;9.142;2023-03-13T02:38:23;8.40;99.90
46438;DHT22;32137;48.728;9.142;2023-03-13T02:40:51;8.40;99.90
46438;DHT22;32137;48.728;9.142;2023-03-13T02:43:22;8.50;99.90
46438;DHT22;32137;48.728;9.142;2023-03-13T02:46:14;8.40;99.90
46438;DHT22;32137;48.728;9.142;2023-03-13T02:48:43;8.50;99.90
46438;DHT22;32137;48.728;9.142;2023-03-13T02:53:48;8.50;99.90
46438;DHT22;32137;48.728;9.142;2023-03-13T02:56:16;8.50;99.90
46438;DHT22;32137;48.728;9.142;2023-03-13T02:58:43;8.40;99.90
46438;DHT22;32137;48.728;9.142;2023-03-13T03:01:09;8.50;99.90
46438;DHT22;32137;48.728;9.142;2023-03-13T03:03:35;8.50;99.90
46438;DHT22;32137;48.728;9.142;2023-03-13T03:06:05;8.60;99.90
46438;DHT22;32137;48.728;9.142;2023-03-13T03:08:31;8.60;99.90
46438;DHT22;32137;48.728;9.142;2023-03-13T03:10:57;8.60;99.90
46438;DHT22;32137;48.728;9.142;2023-03-13T03:13:22;8.70;99.90
46438;DHT22;32137;48.728;9.142;2023-03-13T03:15:48;8.60;99.90
46438;DHT22;32137;48.728;9.142;2023-03-13T03:18:14;8.70;99.90
46438;DHT22;32137;48.728;9.142;2023-03-13T03:20:39;8.70;99.90
46438;DHT22;32137;48.728;9.142;2023-03-13T03:23:05;8.70;99.90
46438;DHT22;32137;48.728;9.142;2023-03-13T03:25:30;8.70;99.90
46438;DHT22;32137;48.728;9.142;2023-03-13T03:27:56;8.80;99.90
46438;DHT22;32137;48.728;9.142;2023-03-13T03:30:21;8.80;99.90
46438;DHT22;32137;48.728;9.142;2023-03-13T03:32:47;8.80;99.90
46438;DHT22;32137;48.728;9.142;2023-03-13T03:35:12;8.80;99.90
46438;DHT22;32137;48.728;9.142;2023-03-13T03:37:38;8.90;99.90
46438;DHT22;32137;48.728;9.142;2023-03-13T03:40:04;8.90;99.90
46438;DHT22;32137;48.728;9.142;2023-03-13T03:42:32;8.90;99.90
46438;DHT22;32137;48.728;9.142;2023-03-13T03:44:58;8.90;99.90
46438;DHT22;32137;48.728;9.142;2023-03-13T03:47:24;8.90;99.90
46438;DHT22;32137;48.728;9.142;2023-03-13T03:49:49;9.00;99.90
46438;DHT22;32137;48.728;9.142;2023-03-13T03:52:15;9.00;99.90
46438;DHT22;32137;48.728;9.142;2023-03-13T03:54:41;9.00;99.90
46438;DHT22;32137;48.728;9.142;2023-03-13T03:57:07;9.00;99.90
46438;DHT22;32137;48.728;9.142;2023-03-13T03:59:32;9.10;99.90
46438;DHT22;32137;48.728;9.142;2023-03-13T04:01:58;9.10;99.90
46438;DHT22;32137;48.728;9.142;2023-03-13T04:04:23;9.10;99.90
46438;DHT22;32137;48.728;9.142;2023-03-13T04:06:49;9.20;99.90
46438;DHT22;32137;48.728;9.142;2023-03-13T04:09:14;9.20;99.90
46438;DHT22;32137;48.728;9.142;2023-03-13T04:11:40;9.30;99.90
46438;DHT22;32137;48.728;9.142;2023-03-13T04:14:05;9.40;99.90
46438;DHT22;32137;48.728;9.142;2023-03-13T04:16:32;9.50;99.90
46438;DHT22;32137;48.728;9.142;2023-03-13T04:18:57;9.60;99.90
46438;DHT22;32137;48.728;9.142;2023-03-13T04:21:23;9.70;99.90
46438;DHT22;32137;48.728;9.142;2023-03-13T04:23:48;9.80;99.90
46438;DHT22;32137;48.728;9.142;2023-03-13T04:26:14;9.80;99.90
46438;DHT22;32137;48.728;9.142;2023-03-13T04:28:39;9.90;99.90
46438;DHT22;32137;48.728;9.142;2023-03-13T04:31:05;9.90;99.90
46438;DHT22;32137;48.728;9.142;2023-03-13T04:33:30;9.90;99.90
46438;DHT22;32137;48.728;9.142;2023-03-13T04:35:56;10.00;99.90
46438;DHT22;32137;48.728;9.142;2023-03-13T04:38:22;10.00;99.90
46438;DHT22;32137;48.728;9.142;2023-03-13T04:40:47;9.90;99.90
46438;DHT22;32137;48.728;9.142;2023-03-13T04:43:13;10.00;99.90
46438;DHT22;32137;48.728;9.142;2023-03-13T04:45:38;10.10;99.90
46438;DHT22;32137;48.728;9.142;2023-03-13T04:48:04;10.10;99.90
46438;DHT22;32137;48.728;9.142;2023-03-13T04:50:29;10.10;99.90
46438;DHT22;32137;48.728;9.142;2023-03-13T04:52:55;10.10;99.90
46438;DHT22;32137;48.728;9.142;2023-03-13T04:55:20;10.10;99.90
46438;DHT22;32137;48.728;9.142;2023-03-13T04:57:46;10.10;99.90
46438;DHT22;32137;48.728;9.142;2023-03-13T05:00:12;10.10;99.90
46438;DHT22;32137;48.728;9.142;2023-03-13T05:02:37;10.10;99.90
46438;DHT22;32137;48.728;9.142;2023-03-13T05:05:03;10.10;99.90
46438;DHT22;32137;48.728;9.142;2023-03-13T05:07:29;10.10;99.90
46438;DHT22;32137;48.728;9.142;2023-03-13T05:09:54;10.20;99.90
46438;DHT22;32137;48.728;9.142;2023-03-13T05:12:20;10.20;99.90
46438;DHT22;32137;48.728;9.142;2023-03-13T05:14:45;10.20;99.90
46438;DHT22;32137;48.728;9.142;2023-03-13T05:17:11;10.20;99.90
46438;DHT22;32137;48.728;9.142;2023-03-13T05:19:37;10.20;99.90
46438;DHT22;32137;48.728;9.142;2023-03-13T05:22:03;10.20;99.90
46438;DHT22;32137;48.728;9.142;2023-03-13T05:24:28;10.20;99.90
46438;DHT22;32137;48.728;9.142;2023-03-13T05:26:54;10.20;99.90
46438;DHT22;32137;48.728;9.142;2023-03-13T05:29:19;10.20;99.90
46438;DHT22;32137;48.728;9.142;2023-03-13T05:31:45;10.20;99.90
46438;DHT22;32137;48.728;9.142;2023-03-13T05:34:11;10.20;99.90
46438;DHT22;32137;48.728;9.142;2023-03-13T05:36:36;10.20;99.90
46438;DHT22;32137;48.728;9.142;2023-03-13T05:39:02;10.30;99.90
46438;DHT22;32137;48.728;9.142;2023-03-13T05:41:27;10.20;99.90
46438;DHT22;32137;48.728;9.142;2023-03-13T05:43:53;10.30;99.90
46438;DHT22;32137;48.728;9.142;2023-03-13T05:46:19;10.30;99.90
46438;DHT22;32137;48.728;9.142;2023-03-13T05:48:44;10.50;99.90
46438;DHT22;32137;48.728;9.142;2023-03-13T05:51:11;10.50;99.90
46438;DHT22;32137;48.728;9.142;2023-03-13T05:53:37;10.50;99.90
46438;DHT22;32137;48.728;9.142;2023-03-13T05:56:03;10.40;99.90
46438;DHT22;32137;48.728;9.142;2023-03-13T05:58:28;10.40;99.90
46438;DHT22;32137;48.728;9.142;2023-03-13T06:00:54;10.40;99.90
46438;DHT22;32137;48.728;9.142;2023-03-13T06:03:19;10.30;99.90
46438;DHT22;32137;48.728;9.142;2023-03-13T06:05:45;10.30;99.90
46438;DHT22;32137;48.728;9.142;2023-03-13T06:08:10;10.20;99.90
46438;DHT22;32137;48.728;9.142;2023-03-13T06:10:36;10.30;99.90
46438;DHT22;32137;48.728;9.142;2023-03-13T06:13:01;10.30;99.90
46438;DHT22;32137;48.728;9.142;2023-03-13T06:15:27;10.30;99.90
46438;DHT22;32137;48.728;9.142;2023-03-13T06:17:53;10.50;99.90
46438;DHT22;32137;48.728;9.142;2023-03-13T06:20:18;10.50;99.90
46438;DHT22;32137;48.728;9.142;2023-03-13T06:22:44;10.50;99.90
46438;DHT22;32137;48.728;9.142;2023-03-13T06:25:11;10.50;99.90
46438;DHT22;32137;48.728;9.142;2023-03-13T06:27:36;10.60;99.90
46438;DHT22;32137;48.728;9.142;2023-03-13T06:30:02;10.60;99.90
46438;DHT22;32137;48.728;9.142;2023-03-13T06:32:28;10.70;99.90
46438;DHT22;32137;48.728;9.142;2023-03-13T06:34:53;10.70;99.90
46438;DHT22;32137;48.728;9.142;2023-03-13T06:37:19;10.70;99.90
46438;DHT22;32137;48.728;9.142;2023-03-13T06:39:44;10.80;99.90
46438;DHT22;32137;48.728;9.142;2023-03-13T06:42:10;10.80;99.90
46438;DHT22;32137;48.728;9.142;2023-03-13T06:44:36;10.80;99.90
46438;DHT22;32137;48.728;9.142;2023-03-13T06:47:01;10.80;99.90
46438;DHT22;32137;48.728;9.142;2023-03-13T06:49:27;10.90;99.90
46438;DHT22;32137;48.728;9.142;2023-03-13T06:51:52;10.80;99.90
46438;DHT22;32137;48.728;9.142;2023-03-13T06:54:21;10.90;99.90
46438;DHT22;32137;48.728;9.142;2023-03-13T06:56:46;10.90;99.90
46438;DHT22;32137;48.728;9.142;2023-03-13T06:59:12;10.90;99.90
46438;DHT22;32137;48.728;9.142;2023-03-13T07:01:37;10.80;99.90
46438;DHT22;32137;48.728;9.142;2023-03-13T07:04:03;10.90;99.90
46438;DHT22;32137;48.728;9.142;2023-03-13T07:06:28;10.90;99.90
46438;DHT22;32137;48.728;9.142;2023-03-13T07:08:54;10.90;99.90
46438;DHT22;32137;48.728;9.142;2023-03-13T07:11:19;10.90;99.90
46438;DHT22;32137;48.728;9.142;2023-03-13T07:13:45;10.90;99.90
46438;DHT22;32137;48.728;9.142;2023-03-13T07:16:12;11.00;99.90
46438;DHT22;32137;48.728;9.142;2023-03-13T07:18:38;11.00;99.90
46438;DHT22;32137;48.728;9.142;2023-03-13T07:21:06;11.00;99.90
46438;DHT22;32137;48.728;9.142;2023-03-13T07:23:33;11.00;99.90
46438;DHT22;32137;48.728;9.142;2023-03-13T07:26:05;11.10;99.90
46438;DHT22;32137;48.728;9.142;2023-03-13T07:28:31;11.00;99.90
46438;DHT22;32137;48.728;9.142;2023-03-13T07:33:36;11.10;99.90
46438;DHT22;32137;48.728;9.142;2023-03-13T07:36:02;11.10;99.90
46438;DHT22;32137;48.728;9.142;2023-03-13T07:38:28;11.10;99.90
46438;DHT22;32137;48.728;9.142;2023-03-13T07:40:55;11.10;99.90
46438;DHT22;32137;48.728;9.142;2023-03-13T07:43:22;11.10;99.90
46438;DHT22;32137;48.728;9.142;2023-03-13T07:45:51;11.20;99.90
46438;DHT22;32137;48.728;9.142;2023-03-13T07:48:18;11.20;99.90
46438;DHT22;32137;48.728;9.142;2023-03-13T07:50:44;11.20;99.90
46438;DHT22;32137;48.728;9.142;2023-03-13T07:53:09;11.30;99.90
46438;DHT22;32137;48.728;9.142;2023-03-13T07:55:35;11.20;99.90
46438;DHT22;32137;48.728;9.142;2023-03-13T07:58:00;11.30;99.90
46438;DHT22;32137;48.728;9.142;2023-03-13T08:00:26;11.20;99.90
46438;DHT22;32137;48.728;9.142;2023-03-13T08:02:51;11.40;99.90
46438;DHT22;32137;48.728;9.142;2023-03-13T08:05:17;11.40;99.90
46438;DHT22;32137;48.728;9.142;2023-03-13T08:07:45;11.30;99.90
46438;DHT22;32137;48.728;9.142;2023-03-13T08:10:11;11.40;99.90
46438;DHT22;32137;48.728;9.142;2023-03-13T08:12:36;11.40;99.90
46438;DHT22;32137;48.728;9.142;2023-03-13T08:15:02;11.40;99.90
46438;DHT22;32137;48.728;9.142;2023-03-13T08:17:29;11.40;99.90
46438;DHT22;32137;48.728;9.142;2023-03-13T08:19:54;11.40;99.90
46438;DHT22;32137;48.728;9.142;2023-03-13T08:22:20;11.30;99.90
46438;DHT22;32137;48.728;9.142;2023-03-13T08:24:46;11.60;99.90
46438;DHT22;32137;48.728;9.142;2023-03-13T08:27:11;11.60;99.90
46438;DHT22;32137;48.728;9.142;2023-03-13T08:29:37;11.60;99.90
46438;DHT22;32137;48.728;9.142;2023-03-13T08:32:02;11.60;99.90
46438;DHT22;32137;48.728;9.142;2023-03-13T08:34:29;11.80;99.90
46438;DHT22;32137;48.728;9.142;2023-03-13T08:36:55;11.70;99.90
46438;DHT22;32137;48.728;9.142;2023-03-13T08:39:21;11.60;99.90
46438;DHT22;32137;48.728;9.142;2023-03-13T08:41:47;11.80;99.90
46438;DHT22;32137;48.728;9.142;2023-03-13T08:44:15;11.80;99.90
46438;DHT22;32137;48.728;9.142;2023-03-13T08:46:40;11.80;99.90
46438;DHT22;32137;48.728;9.142;2023-03-13T08:49:07;11.90;99.90
46438;DHT22;32137;48.728;9.142;2023-03-13T08:51:33;11.90;99.90
46438;DHT22;32137;48.728;9.142;2023-03-13T08:54:00;12.00;99.90
46438;DHT22;32137;48.728;9.142;2023-03-13T08:56:27;12.20;99.90
46438;DHT22;32137;48.728;9.142;2023-03-13T08:58:55;12.20;99.90
46438;DHT22;32137;48.728;9.142;2023-03-13T09:01:23;12.00;99.90
46438;DHT22;32137;48.728;9.142;2023-03-13T09:03:49;12.00;99.90
46438;DHT22;32137;48.728;9.142;2023-03-13T09:06:15;12.10;99.90
46438;DHT22;32137;48.728;9.142;2023-03-13T09:08:42;12.10;99.90
46438;DHT22;32137;48.728;9.142;2023-03-13T09:11:19;12.20;99.90
46438;DHT22;32137;48.728;9.142;2023-03-13T09:13:47;12.20;99.90
46438;DHT22;32137;48.728;9.142;2023-03-13T09:16:16;12.20;99.90
46438;DHT22;32137;48.728;9.142;2023-03-13T09:18:42;12.10;99.90
46438;DHT22;32137;48.728;9.142;2023-03-13T09:21:11;12.20;99.90
46438;DHT22;32137;48.728;9.142;2023-03-13T09:23:38;12.20;99.90
46438;DHT22;32137;48.728;9.142;2023-03-13T09:26:03;12.20;99.90
46438;DHT22;32137;48.728;9.142;2023-03-13T09:28:29;12.20;99.90
46438;DHT22;32137;48.728;9.142;2023-03-13T09:30:55;12.20;99.90
46438;DHT22;32137;48.728;9.142;2023-03-13T09:33:30;12.30;99.90
46438;DHT22;32137;48.728;9.142;2023-03-13T09:35:56;12.30;99.90
46438;DHT22;32137;48.728;9.142;2023-03-13T09:38:22;12.40;99.90
46438;DHT22;32137;48.728;9.142;2023-03-13T09:40:49;12.50;99.90
46438;DHT22;32137;48.728;9.142;2023-03-13T09:46:03;12.20;99.90
46438;DHT22;32137;48.728;9.142;2023-03-13T09:48:36;12.30;99.90
46438;DHT22;32137;48.728;9.142;2023-03-13T09:51:29;12.40;99.90
46438;DHT22;32137;48.728;9.142;2023-03-13T09:54:07;12.30;99.90
46438;DHT22;32137;48.728;9.142;2023-03-13T09:57:04;12.40;99.90
46438;DHT22;32137;48.728;9.142;2023-03-13T09:59:42;12.50;99.90
46438;DHT22;32137;48.728;9.142;2023-03-13T10:02:28;12.80;99.90
46438;DHT22;32137;48.728;9.142;2023-03-13T10:05:18;12.90;99.90
46438;DHT22;32137;48.728;9.142;2023-03-13T10:07:45;12.80;99.90
46438;DHT22;32137;48.728;9.142;2023-03-13T10:10:19;13.00;99.90
46438;DHT22;32137;48.728;9.142;2023-03-13T10:12:47;12.90;99.90
46438;DHT22;32137;48.728;9.142;2023-03-13T10:15:32;12.80;99.90
46438;DHT22;32137;48.728;9.142;2023-03-13T10:18:02;12.70;99.90
46438;DHT22;32137;48.728;9.142;2023-03-13T10:20:35;12.80;99.90
46438;DHT22;32137;48.728;9.142;2023-03-13T10:26:17;12.60;99.90
46438;DHT22;32137;48.728;9.142;2023-03-13T10:28:43;12.70;99.90
46438;DHT22;32137;48.728;9.142;2023-03-13T10:31:16;12.80;99.90
46438;DHT22;32137;48.728;9.142;2023-03-13T10:33:45;13.00;99.90
46438;DHT22;32137;48.728;9.142;2023-03-13T10:36:12;13.30;99.90
46438;DHT22;32137;48.728;9.142;2023-03-13T10:38:52;13.50;99.90
46438;DHT22;32137;48.728;9.142;2023-03-13T10:43:58;13.90;99.90
46438;DHT22;32137;48.728;9.142;2023-03-13T10:46:27;14.20;99.90
46438;DHT22;32137;48.728;9.142;2023-03-13T10:48:53;14.30;99.90
46438;DHT22;32137;48.728;9.142;2023-03-13T10:51:22;14.10;1.00
46438;DHT22;32137;48.728;9.142;2023-03-13T10:53:48;14.20;1.00
46438;DHT22;32137;48.728;9.142;2023-03-13T10:56:15;14.40;1.00
46438;DHT22;32137;48.728;9.142;2023-03-13T10:58:48;14.30;31.30
46438;DHT22;32137;48.728;9.142;2023-03-13T11:01:17;14.40;1.00
46438;DHT22;32137;48.728;9.142;2023-03-13T11:03:46;14.50;99.90
46438;DHT22;32137;48.728;9.142;2023-03-13T11:06:25;14.40;46.40
46438;DHT22;32137;48.728;9.142;2023-03-13T11:09:14;14.10;1.00
46438;DHT22;32137;48.728;9.142;2023-03-13T11:11:46;14.40;99.90
46438;DHT22;32137;48.728;9.142;2023-03-13T11:14:15;14.20;99.90
46438;DHT22;32137;48.728;9.142;2023-03-13T11:16:49;14.30;99.90
46438;DHT22;32137;48.728;9.142;2023-03-13T11:19:19;14.20;1.00
46438;DHT22;32137;48.728;9.142;2023-03-13T11:22:24;14.30;99.90
46438;DHT22;32137;48.728;9.142;2023-03-13T11:25:12;14.30;99.90
46438;DHT22;32137;48.728;9.142;2023-03-13T11:33:04;14.60;65.40
46438;DHT22;32137;48.728;9.142;2023-03-13T11:35:43;14.80;16.90
46438;DHT22;32137;48.728;9.142;2023-03-13T11:38:42;14.40;1.00
46438;DHT22;32137;48.728;9.142;2023-03-13T11:41:18;14.40;1.00
46438;DHT22;32137;48.728;9.142;2023-03-13T11:43:55;14.60;1.00
46438;DHT22;32137;48.728;9.142;2023-03-13T11:46:44;14.80;1.00
46438;DHT22;32137;48.728;9.142;2023-03-13T11:58:08;15.20;1.00
46438;DHT22;32137;48.728;9.142;2023-03-13T12:00:41;15.70;1.00
46438;DHT22;32137;48.728;9.142;2023-03-13T12:03:21;15.80;1.00
46438;DHT22;32137;48.728;9.142;2023-03-13T12:05:54;15.80;1.00
46438;DHT22;32137;48.728;9.142;2023-03-13T12:08:34;15.80;1.00
46438;DHT22;32137;48.728;9.142;2023-03-13T12:11:15;16.00;1.00
46438;DHT22;32137;48.728;9.142;2023-03-13T12:14:01;16.00;1.00
46438;DHT22;32137;48.728;9.142;2023-03-13T12:16:55;16.30;1.00
46438;DHT22;32137;48.728;9.142;2023-03-13T12:19:46;16.50;1.00
46438;DHT22;32137;48.728;9.142;2023-03-13T12:22:22;16.70;1.00
46438;DHT22;32137;48.728;9.142;2023-03-13T12:24:59;16.90;1.00
46438;DHT22;32137;48.728;9.142;2023-03-13T12:27:34;17.30;1.00
46438;DHT22;32137;48.728;9.142;2023-03-13T12:30:32;17.50;1.00
46438;DHT22;32137;48.728;9.142;2023-03-13T12:35:40;18.20;1.00
46438;DHT22;32137;48.728;9.142;2023-03-13T12:38:48;18.50;1.00
46438;DHT22;32137;48.728;9.142;2023-03-13T12:41:24;18.70;99.90
46438;DHT22;32137;48.728;9.142;2023-03-13T12:43:53;19.00;99.90
46438;DHT22;32137;48.728;9.142;2023-03-13T12:49:13;20.40;99.90
46438;DHT22;32137;48.728;9.142;2023-03-13T12:54:40;23.30;99.90
46438;DHT22;32137;48.728;9.142;2023-03-13T12:59:59;25.90;99.90
46438;DHT22;32137;48.728;9.142;2023-03-13T13:02:30;26.20;99.90
46438;DHT22;32137;48.728;9.142;2023-03-13T13:05:00;26.20;99.90
46438;DHT22;32137;48.728;9.142;2023-03-13T13:07:31;26.20;99.90
46438;DHT22;32137;48.728;9.142;2023-03-13T13:12:35;26.70;99.90
46438;DHT22;32137;48.728;9.142;2023-03-13T13:15:10;26.70;99.90
46438;DHT22;32137;48.728;9.142;2023-03-13T13:17:46;26.30;99.90
46438;DHT22;32137;48.728;9.142;2023-03-13T13:20:43;26.70;99.90
46438;DHT22;32137;48.728;9.142;2023-03-13T13:25:46;25.90;99.90
46438;DHT22;32137;48.728;9.142;2023-03-13T13:28:23;25.20;99.90
46438;DHT22;32137;48.728;9.142;2023-03-13T13:30:53;24.90;99.90
46438;DHT22;32137;48.728;9.142;2023-03-13T13:36:24;24.00;99.90
46438;DHT22;32137;48.728;9.142;2023-03-13T13:38:51;23.40;99.90
46438;DHT22;32137;48.728;9.142;2023-03-13T13:41:33;22.80;99.90
46438;DHT22;32137;48.728;9.142;2023-03-13T13:44:22;22.20;99.90
46438;DHT22;32137;48.728;9.142;2023-03-13T13:46:48;21.60;99.90
46438;DHT22;32137;48.728;9.142;2023-03-13T13:49:18;21.20;99.90
46438;DHT22;32137;48.728;9.142;2023-03-13T13:57:21;21.20;99.90
46438;DHT22;32137;48.728;9.142;2023-03-13T14:00:32;21.30;99.90
46438;DHT22;32137;48.728;9.142;2023-03-13T14:02:54;21.60;99.90
46438;DHT22;32137;48.728;9.142;2023-03-13T14:05:29;21.80;99.90
46438;DHT22;32137;48.728;9.142;2023-03-13T14:08:00;21.80;99.90
46438;DHT22;32137;48.728;9.142;2023-03-13T14:10:39;21.70;99.90
46438;DHT22;32137;48.728;9.142;2023-03-13T14:13:14;21.80;99.90
46438;DHT22;32137;48.728;9.142;2023-03-13T14:15:44;22.00;99.90
46438;DHT22;32137;48.728;9.142;2023-03-13T14:18:28;22.10;99.90
46438;DHT22;32137;48.728;9.142;2023-03-13T14:21:05;22.00;99.90
46438;DHT22;32137;48.728;9.142;2023-03-13T14:23:43;21.90;99.90
46438;DHT22;32137;48.728;9.142;2023-03-13T14:26:13;21.90;99.90
46438;DHT22;32137;48.728;9.142;2023-03-13T14:28:41;21.90;99.90
46438;DHT22;32137;48.728;9.142;2023-03-13T14:31:08;22.20;99.90
46438;DHT22;32137;48.728;9.142;2023-03-13T14:33:34;22.50;99.90
46438;DHT22;32137;48.728;9.142;2023-03-13T14:36:00;22.80;99.90
46438;DHT22;32137;48.728;9.142;2023-03-13T14:38:27;22.70;99.90
46438;DHT22;32137;48.728;9.142;2023-03-13T14:40:57;22.40;99.90
46438;DHT22;32137;48.728;9.142;2023-03-13T14:43:35;22.50;99.90
46438;DHT22;32137;48.728;9.142;2023-03-13T14:46:33;22.70;99.90
46438;DHT22;32137;48.728;9.142;2023-03-13T14:49:18;22.70;99.90
46438;DHT22;32137;48.728;9.142;2023-03-13T14:51:46;22.70;99.90
46438;DHT22;32137;48.728;9.142;2023-03-13T14:54:32;22.60;99.90
46438;DHT22;32137;48.728;9.142;2023-03-13T14:57:13;22.40;99.90
46438;DHT22;32137;48.728;9.142;2023-03-13T14:59:41;22.30;99.90
46438;DHT22;32137;48.728;9.142;2023-03-13T15:02:26;22.30;99.90
46438;DHT22;32137;48.728;9.142;2023-03-13T15:05:04;22.10;99.90
46438;DHT22;32137;48.728;9.142;2023-03-13T15:07:51;22.10;99.90
46438;DHT22;32137;48.728;9.142;2023-03-13T15:10:23;22.10;99.90
46438;DHT22;32137;48.728;9.142;2023-03-13T15:12:49;22.10;99.90
46438;DHT22;32137;48.728;9.142;2023-03-13T15:15:15;22.00;99.90
46438;DHT22;32137;48.728;9.142;2023-03-13T15:17:41;21.90;99.90
46438;DHT22;32137;48.728;9.142;2023-03-13T15:20:11;21.80;99.90
46438;DHT22;32137;48.728;9.142;2023-03-13T15:22:39;21.60;99.90
46438;DHT22;32137;48.728;9.142;2023-03-13T15:25:23;21.60;99.90
46438;DHT22;32137;48.728;9.142;2023-03-13T15:27:49;21.60;99.90
46438;DHT22;32137;48.728;9.142;2023-03-13T15:30:20;21.60;99.90
46438;DHT22;32137;48.728;9.142;2023-03-13T15:32:47;21.70;99.90
46438;DHT22;32137;48.728;9.142;2023-03-13T15:35:28;21.60;99.90
46438;DHT22;32137;48.728;9.142;2023-03-13T15:37:56;21.50;99.90
46438;DHT22;32137;48.728;9.142;2023-03-13T15:40:23;21.40;99.90
46438;DHT22;32137;48.728;9.142;2023-03-13T15:42:49;21.30;99.90
46438;DHT22;32137;48.728;9.142;2023-03-13T15:45:15;21.10;99.90
46438;DHT22;32137;48.728;9.142;2023-03-13T15:47:40;20.90;99.90
46438;DHT22;32137;48.728;9.142;2023-03-13T15:50:18;20.80;99.90
46438;DHT22;32137;48.728;9.142;2023-03-13T15:52:44;20.90;99.90
46438;DHT22;32137;48.728;9.142;2023-03-13T15:55:10;20.90;99.90
46438;DHT22;32137;48.728;9.142;2023-03-13T15:57:44;20.80;99.90
46438;DHT22;32137;48.728;9.142;2023-03-13T16:00:25;20.70;99.90
46438;DHT22;32137;48.728;9.142;2023-03-13T16:02:51;20.50;99.90
46438;DHT22;32137;48.728;9.142;2023-03-13T16:05:16;20.40;99.90
46438;DHT22;32137;48.728;9.142;2023-03-13T16:07:42;20.30;99.90
46438;DHT22;32137;48.728;9.142;2023-03-13T16:10:18;20.30;99.90
46438;DHT22;32137;48.728;9.142;2023-03-13T16:12:43;20.20;99.90
46438;DHT22;32137;48.728;9.142;2023-03-13T16:15:09;20.20;99.90
46438;DHT22;32137;48.728;9.142;2023-03-13T16:17:35;20.20;99.90
46438;DHT22;32137;48.728;9.142;2023-03-13T16:20:01;20.30;99.90
46438;DHT22;32137;48.728;9.142;2023-03-13T16:22:28;20.30;99.90
46438;DHT22;32137;48.728;9.142;2023-03-13T16:24:54;20.20;99.90
46438;DHT22;32137;48.728;9.142;2023-03-13T16:27:19;20.10;99.90
46438;DHT22;32137;48.728;9.142;2023-03-13T16:29:45;19.90;99.90
46438;DHT22;32137;48.728;9.142;2023-03-13T16:32:13;19.70;99.90
46438;DHT22;32137;48.728;9.142;2023-03-13T16:34:39;19.60;99.90
46438;DHT22;32137;48.728;9.142;2023-03-13T16:37:13;19.40;99.90
46438;DHT22;32137;48.728;9.142;2023-03-13T16:39:39;19.30;99.90
46438;DHT22;32137;48.728;9.142;2023-03-13T16:42:05;19.20;99.90
46438;DHT22;32137;48.728;9.142;2023-03-13T16:44:30;19.10;99.90
46438;DHT22;32137;48.728;9.142;2023-03-13T16:46:56;19.00;99.90